Terminal Aerodrome Forecast
Issued by NWS

Home | Current Version | Previous Version | Text Only | Print | Product List | Glossary Off
Versions: 1 2 3 4 5 6 7 8 9 10 11 12 13 14 15 16 17 18 19 20 21 22 23 24 25 26 27

000
FTUS43 KABR 270723 AAA
TAFATY
TAF AMD
KATY 270723Z 2707/2806 10011G18KT P6SM VCSH OVC006
     FM271100 07019G27KT 4SM -RA BR OVC012
     FM271500 07021G29KT 5SM RA BR OVC015=

USA.gov is the U.S. government's official web portal to all federal, state and local government web resources and services.